^^
Saratoga-Weather Station Historical Data
Daily Summary for September 29, 2020 Units:  Both    English   Metric
Daily Weekly Monthly Yearly Custom
  High: Low: Average:
Temperature: 72.3 °F /  22.4 °C 57.6 °F /  14.2 °C 64.6 °F /  18.1 °C
Dew Point: 59.9 °F /  15.5 °C 48 °F /  8.9 °C 53.8 °F /  12.1 °C
Humidity: 92% 44% 70%
Wind Speed: 14.1mph /  22.7km/h - 3.2mph /  5.1km/h
Wind Gust: 18mph /  29km/h - -
Wind- - WSW
Pressure: 30 in /  1014.6 hPa 29.9 in /  1012.2 hPa -
Precipitation: 0 in /  0.0 mm    
Historical Graphs
 
 
Tabular Data for September 29, 2020
Time Temperature Dew Point Pressure Wind Wind Speed Wind Gust Humidity Rainfall Rate (Hourly) solar
00:00 59.5 °F /  15.3 °C 55.4 °F /  13 °C 30in /  1014.6hPa South 2mph /  3.2km/h 4mph /  6.4km/h 86% 0in /  0.0mm 0 W/m2
00:05 59.4 °F /  15.2 °C 55.2 °F /  12.9 °C 30in /  1014.6hPa Calm   1mph /  1.6km/h 86% 0in /  0.0mm 0 W/m2
00:10 59.4 °F /  15.2 °C 55.4 °F /  13 °C 30in /  1014.6hPa Calm   3mph /  4.8km/h 87% 0in /  0.0mm 0 W/m2
00:15 59.2 °F /  15.1 °C 55.4 °F /  13 °C 30in /  1014.6hPa Calm   1mph /  1.6km/h 87% 0in /  0.0mm 0 W/m2
00:20 59 °F /  15 °C 55.2 °F /  12.9 °C 30in /  1014.2hPa NNW 0.9mph /  1.4km/h 2mph /  3.2km/h 87% 0in /  0.0mm 0 W/m2
00:26 58.8 °F /  14.9 °C 55.2 °F /  12.9 °C 30in /  1014.6hPa Calm   1mph /  1.6km/h 88% 0in /  0.0mm 0 W/m2
00:31 58.8 °F /  14.9 °C 55.2 °F /  12.9 °C 30in /  1014.2hPa NNE 2mph /  3.2km/h 4mph /  6.4km/h 88% 0in /  0.0mm 0 W/m2
00:36 58.8 °F /  14.9 °C 55.2 °F /  12.9 °C 30in /  1014.2hPa NNW 0.9mph /  1.4km/h 1mph /  1.6km/h 88% 0in /  0.0mm 0 W/m2
00:41 58.8 °F /  14.9 °C 55.2 °F /  12.9 °C 30in /  1014.2hPa West 2mph /  3.2km/h 4mph /  6.4km/h 88% 0in /  0.0mm 0 W/m2
00:46 58.6 °F /  14.8 °C 55 °F /  12.8 °C 30in /  1014.2hPa Calm   2mph /  3.2km/h 88% 0in /  0.0mm 0 W/m2
00:51 58.6 °F /  14.8 °C 55 °F /  12.8 °C 30in /  1014.2hPa NW 2mph /  3.2km/h 6mph /  9.7km/h 88% 0in /  0.0mm 0 W/m2
00:56 58.6 °F /  14.8 °C 55.4 °F /  13 °C 30in /  1014.2hPa North 2mph /  3.2km/h 6mph /  9.7km/h 89% 0in /  0.0mm 0 W/m2
01:01 58.6 °F /  14.8 °C 55.4 °F /  13 °C 30in /  1014.2hPa NNE 2mph /  3.2km/h 3mph /  4.8km/h 89% 0in /  0.0mm 0 W/m2
01:06 58.6 °F /  14.8 °C 55 °F /  12.8 °C 30in /  1014.2hPa Calm   5mph /  8km/h 88% 0in /  0.0mm 0 W/m2
01:11 58.6 °F /  14.8 °C 55.4 °F /  13 °C 30in /  1014.2hPa NNW 2mph /  3.2km/h 3mph /  4.8km/h 89% 0in /  0.0mm 0 W/m2
01:16 58.6 °F /  14.8 °C 55.4 °F /  13 °C 30in /  1014.6hPa Calm   1mph /  1.6km/h 89% 0in /  0.0mm 0 W/m2
01:21 58.5 °F /  14.7 °C 55.2 °F /  12.9 °C 30in /  1014.2hPa Calm   1mph /  1.6km/h 89% 0in /  0.0mm 0 W/m2
01:31 58.5 °F /  14.7 °C 55.2 °F /  12.9 °C 30in /  1014.6hPa WNW 0.9mph /  1.4km/h 3mph /  4.8km/h 89% 0in /  0.0mm 0 W/m2
01:37 58.5 °F /  14.7 °C 55.2 °F /  12.9 °C 30in /  1014.2hPa SSE 4mph /  6.4km/h 4mph /  6.4km/h 89% 0in /  0.0mm 0 W/m2
01:42 58.3 °F /  14.6 °C 55 °F /  12.8 °C 30in /  1014.2hPa Calm   1mph /  1.6km/h 89% 0in /  0.0mm 0 W/m2
01:47 58.3 °F /  14.6 °C 55.4 °F /  13 °C 30in /  1014.2hPa Calm   3mph /  4.8km/h 90% 0in /  0.0mm 0 W/m2
01:52 58.3 °F /  14.6 °C 55.4 °F /  13 °C 30in /  1014.2hPa SSE 0.9mph /  1.4km/h 3mph /  4.8km/h 90% 0in /  0.0mm 0 W/m2
01:57 58.1 °F /  14.5 °C 55.2 °F /  12.9 °C 30in /  1014.2hPa ESE 2mph /  3.2km/h 2mph /  3.2km/h 90% 0in /  0.0mm 0 W/m2
02:02 58.1 °F /  14.5 °C 55.2 °F /  12.9 °C 30in /  1014.2hPa Calm   2mph /  3.2km/h 90% 0in /  0.0mm 0 W/m2
02:07 57.9 °F /  14.4 °C 55 °F /  12.8 °C 30in /  1014.2hPa East 2mph /  3.2km/h 2mph /  3.2km/h 90% 0in /  0.0mm 0 W/m2
02:12 57.9 °F /  14.4 °C 55 °F /  12.8 °C 29.9in /  1013.9hPa Calm     90% 0in /  0.0mm 0 W/m2
02:17 57.7 °F /  14.3 °C 55.2 °F /  12.9 °C 30in /  1014.2hPa ENE 2mph /  3.2km/h 2mph /  3.2km/h 91% 0in /  0.0mm 0 W/m2
02:22 57.7 °F /  14.3 °C 55.2 °F /  12.9 °C 30in /  1014.2hPa ENE 2mph /  3.2km/h 3mph /  4.8km/h 91% 0in /  0.0mm 0 W/m2
02:27 57.7 °F /  14.3 °C 55.2 °F /  12.9 °C 29.9in /  1013.9hPa ENE 2mph /  3.2km/h 2mph /  3.2km/h 91% 0in /  0.0mm 0 W/m2
02:32 57.7 °F /  14.3 °C 55.2 °F /  12.9 °C 29.9in /  1013.9hPa East 0.9mph /  1.4km/h 1mph /  1.6km/h 91% 0in /  0.0mm 0 W/m2
02:37 57.6 °F /  14.2 °C 55 °F /  12.8 °C 29.9in /  1013.9hPa Calm   2mph /  3.2km/h 91% 0in /  0.0mm 0 W/m2
02:42 57.6 °F /  14.2 °C 55 °F /  12.8 °C 29.9in /  1013.9hPa Calm   1mph /  1.6km/h 91% 0in /  0.0mm 0 W/m2
02:47 57.6 °F /  14.2 °C 55 °F /  12.8 °C 29.9in /  1013.9hPa East 0.9mph /  1.4km/h 1mph /  1.6km/h 91% 0in /  0.0mm 0 W/m2
02:52 57.6 °F /  14.2 °C 55 °F /  12.8 °C 29.9in /  1013.9hPa Calm   1mph /  1.6km/h 91% 0in /  0.0mm 0 W/m2
02:57 57.6 °F /  14.2 °C 55.2 °F /  12.9 °C 29.9in /  1013.9hPa Calm   2mph /  3.2km/h 92% 0in /  0.0mm 0 W/m2
03:02 57.6 °F /  14.2 °C 55.2 °F /  12.9 °C 29.9in /  1013.9hPa NW 0.9mph /  1.4km/h 1mph /  1.6km/h 92% 0in /  0.0mm 0 W/m2
03:07 57.7 °F /  14.3 °C 55.4 °F /  13 °C 30in /  1014.2hPa Calm   1mph /  1.6km/h 92% 0in /  0.0mm 0 W/m2
03:12 57.7 °F /  14.3 °C 55.4 °F /  13 °C 30in /  1014.2hPa NW 0.9mph /  1.4km/h 2mph /  3.2km/h 92% 0in /  0.0mm 0 W/m2
03:17 57.9 °F /  14.4 °C 55.2 °F /  12.9 °C 29.9in /  1013.9hPa NW 2mph /  3.2km/h 3mph /  4.8km/h 91% 0in /  0.0mm 0 W/m2
03:22 57.9 °F /  14.4 °C 55.2 °F /  12.9 °C 29.9in /  1013.9hPa West 4mph /  6.4km/h 4mph /  6.4km/h 91% 0in /  0.0mm 0 W/m2
03:27 57.9 °F /  14.4 °C 55.2 °F /  12.9 °C 29.9in /  1013.9hPa Calm   1mph /  1.6km/h 91% 0in /  0.0mm 0 W/m2
03:32 57.9 °F /  14.4 °C 55.2 °F /  12.9 °C 29.9in /  1013.9hPa NE 2mph /  3.2km/h 3mph /  4.8km/h 91% 0in /  0.0mm 0 W/m2
03:37 57.9 °F /  14.4 °C 55.2 °F /  12.9 °C 29.9in /  1013.9hPa Calm   3mph /  4.8km/h 91% 0in /  0.0mm 0 W/m2
03:42 57.9 °F /  14.4 °C 55.6 °F /  13.1 °C 29.9in /  1013.9hPa NNW 0.9mph /  1.4km/h 2mph /  3.2km/h 92% 0in /  0.0mm 0 W/m2
03:47 58.1 °F /  14.5 °C 55.4 °F /  13 °C 29.9in /  1013.9hPa Calm   2mph /  3.2km/h 91% 0in /  0.0mm 0 W/m2
03:53 58.1 °F /  14.5 °C 55.4 °F /  13 °C 29.9in /  1013.9hPa WNW 0.9mph /  1.4km/h 3mph /  4.8km/h 91% 0in /  0.0mm 0 W/m2
03:58 58.3 °F /  14.6 °C 55.9 °F /  13.3 °C 29.9in /  1013.9hPa NNW 0.9mph /  1.4km/h 3mph /  4.8km/h 92% 0in /  0.0mm 0 W/m2
04:03 58.3 °F /  14.6 °C 55.6 °F /  13.1 °C 29.9in /  1013.9hPa WNW 2mph /  3.2km/h 2mph /  3.2km/h 91% 0in /  0.0mm 0 W/m2
04:08 58.3 °F /  14.6 °C 55.6 °F /  13.1 °C 29.9in /  1013.9hPa Calm   3mph /  4.8km/h 91% 0in /  0.0mm 0 W/m2
04:13 58.3 °F /  14.6 °C 55.6 °F /  13.1 °C 29.9in /  1013.5hPa SW 4mph /  6.4km/h 5mph /  8km/h 91% 0in /  0.0mm 0 W/m2
04:18 58.3 °F /  14.6 °C 55.6 °F /  13.1 °C 29.9in /  1013.5hPa Calm   1mph /  1.6km/h 91% 0in /  0.0mm 0 W/m2
04:23 58.3 °F /  14.6 °C 55.6 °F /  13.1 °C 29.9in /  1013.5hPa SSE 0.9mph /  1.4km/h 2mph /  3.2km/h 91% 0in /  0.0mm 0 W/m2
04:28 58.3 °F /  14.6 °C 55.6 °F /  13.1 °C 29.9in /  1013.5hPa Calm     91% 0in /  0.0mm 0 W/m2
04:33 58.3 °F /  14.6 °C 55.6 °F /  13.1 °C 29.9in /  1013.5hPa SSW 0.9mph /  1.4km/h 2mph /  3.2km/h 91% 0in /  0.0mm 0 W/m2
04:38 58.3 °F /  14.6 °C 55.6 °F /  13.1 °C 29.9in /  1013.2hPa Calm   2mph /  3.2km/h 91% 0in /  0.0mm 0 W/m2
04:43 58.3 °F /  14.6 °C 55.6 °F /  13.1 °C 29.9in /  1013.2hPa West 2.9mph /  4.7km/h 3mph /  4.8km/h 91% 0in /  0.0mm 0 W/m2
04:48 58.3 °F /  14.6 °C 55.6 °F /  13.1 °C 29.9in /  1013.5hPa Calm   1mph /  1.6km/h 91% 0in /  0.0mm 0 W/m2
04:53 58.5 °F /  14.7 °C 55.8 °F /  13.2 °C 29.9in /  1013.2hPa North 0.9mph /  1.4km/h 3mph /  4.8km/h 91% 0in /  0.0mm 0 W/m2
04:58 58.5 °F /  14.7 °C 55.8 °F /  13.2 °C 29.9in /  1013.2hPa Calm   2mph /  3.2km/h 91% 0in /  0.0mm 0 W/m2
05:03 58.5 °F /  14.7 °C 55.8 °F /  13.2 °C 29.9in /  1012.9hPa North 0.9mph /  1.4km/h 2mph /  3.2km/h 91% 0in /  0.0mm 0 W/m2
05:08 58.6 °F /  14.8 °C 55.9 °F /  13.3 °C 29.9in /  1012.9hPa North 2mph /  3.2km/h 3mph /  4.8km/h 91% 0in /  0.0mm 0 W/m2
05:13 58.6 °F /  14.8 °C 55.9 °F /  13.3 °C 29.9in /  1012.9hPa NNW 0.9mph /  1.4km/h 1mph /  1.6km/h 91% 0in /  0.0mm 0 W/m2
05:18 58.6 °F /  14.8 °C 55.9 °F /  13.3 °C 29.9in /  1012.9hPa Calm   1mph /  1.6km/h 91% 0in /  0.0mm 0 W/m2
05:23 58.6 °F /  14.8 °C 55.9 °F /  13.3 °C 29.9in /  1012.9hPa Calm   3mph /  4.8km/h 91% 0in /  0.0mm 0 W/m2
05:33 58.6 °F /  14.8 °C 55.9 °F /  13.3 °C 29.9in /  1012.5hPa WSW 2mph /  3.2km/h 2mph /  3.2km/h 91% 0in /  0.0mm 0 W/m2
05:38 58.5 °F /  14.7 °C 55.8 °F /  13.2 °C 29.9in /  1012.5hPa NNE 0.9mph /  1.4km/h 2mph /  3.2km/h 91% 0in /  0.0mm 0 W/m2
05:43 58.5 °F /  14.7 °C 55.8 °F /  13.2 °C 29.9in /  1012.5hPa Calm     91% 0in /  0.0mm 0 W/m2
05:48 58.5 °F /  14.7 °C 55.8 °F /  13.2 °C 29.9in /  1012.5hPa Calm   2mph /  3.2km/h 91% 0in /  0.0mm 0 W/m2
05:53 58.3 °F /  14.6 °C 55.6 °F /  13.1 °C 29.9in /  1012.9hPa ESE 2mph /  3.2km/h 2mph /  3.2km/h 91% 0in /  0.0mm 0 W/m2
05:58 58.3 °F /  14.6 °C 55.9 °F /  13.3 °C 29.9in /  1012.5hPa ENE 0.9mph /  1.4km/h 3mph /  4.8km/h 92% 0in /  0.0mm 0 W/m2
06:03 58.3 °F /  14.6 °C 55.9 °F /  13.3 °C 29.9in /  1012.9hPa Calm   1mph /  1.6km/h 92% 0in /  0.0mm 7 W/m2
06:08 58.3 °F /  14.6 °C 55.9 °F /  13.3 °C 29.9in /  1012.5hPa Calm     92% 0in /  0.0mm 11 W/m2
06:13 58.3 °F /  14.6 °C 55.9 °F /  13.3 °C 29.9in /  1012.5hPa Calm   2mph /  3.2km/h 92% 0in /  0.0mm 14 W/m2
06:18 58.5 °F /  14.7 °C 56.1 °F /  13.4 °C 29.9in /  1012.5hPa SE 2mph /  3.2km/h 2mph /  3.2km/h 92% 0in /  0.0mm 16 W/m2
06:23 58.5 °F /  14.7 °C 56.1 °F /  13.4 °C 29.9in /  1012.9hPa Calm     92% 0in /  0.0mm 18 W/m2
06:28 58.6 °F /  14.8 °C 56.3 °F /  13.5 °C 29.9in /  1012.9hPa SW 0.9mph /  1.4km/h 1mph /  1.6km/h 92% 0in /  0.0mm 21 W/m2
06:33 58.6 °F /  14.8 °C 56.3 °F /  13.5 °C 29.9in /  1012.9hPa WNW 2mph /  3.2km/h 2mph /  3.2km/h 92% 0in /  0.0mm 25 W/m2
06:38 58.8 °F /  14.9 °C 56.5 °F /  13.6 °C 29.9in /  1012.9hPa Calm   1mph /  1.6km/h 92% 0in /  0.0mm 21 W/m2
06:43 59 °F /  15 °C 56.7 °F /  13.7 °C 29.9in /  1012.9hPa WSW 2mph /  3.2km/h 3mph /  4.8km/h 92% 0in /  0.0mm 21 W/m2
06:48 59.2 °F /  15.1 °C 56.5 °F /  13.6 °C 29.9in /  1012.9hPa NW 2mph /  3.2km/h 2mph /  3.2km/h 91% 0in /  0.0mm 25 W/m2
06:53 59.2 °F /  15.1 °C 56.5 °F /  13.6 °C 29.9in /  1012.9hPa Calm   4mph /  6.4km/h 91% 0in /  0.0mm 35 W/m2
06:58 59.4 °F /  15.2 °C 56.7 °F /  13.7 °C 29.9in /  1012.9hPa NNE 0.9mph /  1.4km/h 2mph /  3.2km/h 91% 0in /  0.0mm 32 W/m2
07:03 59.4 °F /  15.2 °C 56.7 °F /  13.7 °C 29.9in /  1012.9hPa Calm   4mph /  6.4km/h 91% 0in /  0.0mm 25 W/m2
07:08 59.5 °F /  15.3 °C 56.8 °F /  13.8 °C 29.9in /  1012.9hPa WSW 0.9mph /  1.4km/h 2mph /  3.2km/h 91% 0in /  0.0mm 28 W/m2
07:13 59.5 °F /  15.3 °C 56.8 °F /  13.8 °C 29.9in /  1012.9hPa West 0.9mph /  1.4km/h 2mph /  3.2km/h 91% 0in /  0.0mm 53 W/m2
07:18 59.5 °F /  15.3 °C 56.7 °F /  13.7 °C 29.9in /  1012.5hPa North 0.9mph /  1.4km/h 2mph /  3.2km/h 90% 0in /  0.0mm 63 W/m2
07:23 59.7 °F /  15.4 °C 56.8 °F /  13.8 °C 29.9in /  1012.9hPa NE 0.9mph /  1.4km/h 4mph /  6.4km/h 90% 0in /  0.0mm 70 W/m2
07:28 59.9 °F /  15.5 °C 57 °F /  13.9 °C 29.9in /  1012.9hPa North 2mph /  3.2km/h 2mph /  3.2km/h 90% 0in /  0.0mm 69 W/m2
07:33 59.9 °F /  15.5 °C 57 °F /  13.9 °C 29.9in /  1012.9hPa NNW 2mph /  3.2km/h 3mph /  4.8km/h 90% 0in /  0.0mm 86 W/m2
07:38 60.1 °F /  15.6 °C 57.2 °F /  14 °C 29.9in /  1012.9hPa NE 0.9mph /  1.4km/h 4mph /  6.4km/h 90% 0in /  0.0mm 81 W/m2
07:43 60.1 °F /  15.6 °C 57.2 °F /  14 °C 29.9in /  1012.9hPa Calm   2mph /  3.2km/h 90% 0in /  0.0mm 56 W/m2
07:48 60.3 °F /  15.7 °C 57.4 °F /  14.1 °C 29.9in /  1012.9hPa NNE 0.9mph /  1.4km/h 4mph /  6.4km/h 90% 0in /  0.0mm 260 W/m2
07:53 60.4 °F /  15.8 °C 57.6 °F /  14.2 °C 29.9in /  1012.9hPa NW 2mph /  3.2km/h 7mph /  11.3km/h 90% 0in /  0.0mm 255 W/m2
07:58 60.8 °F /  16 °C 57.6 °F /  14.2 °C 29.9in /  1012.9hPa North 4.9mph /  7.9km/h 5mph /  8km/h 89% 0in /  0.0mm 186 W/m2
08:03 61.2 °F /  16.2 °C 57.6 °F /  14.2 °C 29.9in /  1012.9hPa NNW 2mph /  3.2km/h 3mph /  4.8km/h 88% 0in /  0.0mm 156 W/m2
08:08 61.2 °F /  16.2 °C 57.2 °F /  14 °C 29.9in /  1012.9hPa West 2.9mph /  4.7km/h 8mph /  12.9km/h 87% 0in /  0.0mm 197 W/m2
08:13 61.3 °F /  16.3 °C 57.4 °F /  14.1 °C 29.9in /  1012.9hPa West 6mph /  9.7km/h 6mph /  9.7km/h 87% 0in /  0.0mm 160 W/m2
08:18 61.3 °F /  16.3 °C 57.4 °F /  14.1 °C 29.9in /  1012.9hPa West 2.9mph /  4.7km/h 7mph /  11.3km/h 87% 0in /  0.0mm 160 W/m2
08:23 61.5 °F /  16.4 °C 57.6 °F /  14.2 °C 29.9in /  1012.9hPa SSW 2.9mph /  4.7km/h 6mph /  9.7km/h 87% 0in /  0.0mm 236 W/m2
08:28 61.7 °F /  16.5 °C 57.7 °F /  14.3 °C 29.9in /  1012.9hPa North 0.9mph /  1.4km/h 7mph /  11.3km/h 87% 0in /  0.0mm 149 W/m2
08:33 62.1 °F /  16.7 °C 57.7 °F /  14.3 °C 29.9in /  1012.9hPa NW 0.9mph /  1.4km/h 3mph /  4.8km/h 86% 0in /  0.0mm 236 W/m2
08:38 62.4 °F /  16.9 °C 58.1 °F /  14.5 °C 29.9in /  1012.9hPa WNW 4mph /  6.4km/h 4mph /  6.4km/h 86% 0in /  0.0mm 130 W/m2
08:43 62.4 °F /  16.9 °C 57.9 °F /  14.4 °C 29.9in /  1012.9hPa SW 0.9mph /  1.4km/h 6mph /  9.7km/h 85% 0in /  0.0mm 120 W/m2
08:48 62.4 °F /  16.9 °C 57.9 °F /  14.4 °C 29.9in /  1012.9hPa WSW 2.9mph /  4.7km/h 7mph /  11.3km/h 85% 0in /  0.0mm 181 W/m2
08:53 62.4 °F /  16.9 °C 57.9 °F /  14.4 °C 29.9in /  1012.9hPa NW 4.9mph /  7.9km/h 5mph /  8km/h 85% 0in /  0.0mm 186 W/m2
08:58 63 °F /  17.2 °C 58.5 °F /  14.7 °C 29.9in /  1013.2hPa West 6mph /  9.7km/h 6mph /  9.7km/h 85% 0in /  0.0mm 216 W/m2
09:03 63.1 °F /  17.3 °C 58.3 °F /  14.6 °C 29.9in /  1012.9hPa WNW 4.9mph /  7.9km/h 5mph /  8km/h 84% 0in /  0.0mm 125 W/m2
09:08 63.1 °F /  17.3 °C 57.9 °F /  14.4 °C 29.9in /  1012.9hPa NW 2mph /  3.2km/h 3mph /  4.8km/h 83% 0in /  0.0mm 58 W/m2
09:13 63.1 °F /  17.3 °C 57.9 °F /  14.4 °C 29.9in /  1013.2hPa NW 2mph /  3.2km/h 5mph /  8km/h 83% 0in /  0.0mm 104 W/m2
09:18 62.8 °F /  17.1 °C 57.9 °F /  14.4 °C 29.9in /  1013.2hPa NNE 2.9mph /  4.7km/h 6mph /  9.7km/h 84% 0in /  0.0mm 46 W/m2
09:23 62.4 °F /  16.9 °C 58.1 °F /  14.5 °C 29.9in /  1013.2hPa NNW 0.9mph /  1.4km/h 2mph /  3.2km/h 86% 0in /  0.0mm 127 W/m2
09:28 63 °F /  17.2 °C 59.4 °F /  15.2 °C 29.9in /  1012.9hPa NNW 0.9mph /  1.4km/h 2mph /  3.2km/h 88% 0in /  0.0mm 568 W/m2
09:38 64 °F /  17.8 °C 59.7 °F /  15.4 °C 29.9in /  1013.2hPa WNW 2mph /  3.2km/h 4mph /  6.4km/h 86% 0in /  0.0mm 197 W/m2
09:43 64.8 °F /  18.2 °C 59.9 °F /  15.5 °C 29.9in /  1013.2hPa West 2.9mph /  4.7km/h 9mph /  14.5km/h 84% 0in /  0.0mm 666 W/m2
09:48 64.9 °F /  18.3 °C 59.7 °F /  15.4 °C 29.9in /  1013.2hPa WNW 4.9mph /  7.9km/h 7mph /  11.3km/h 83% 0in /  0.0mm 501 W/m2
09:53 64.9 °F /  18.3 °C 59.4 °F /  15.2 °C 29.9in /  1013.2hPa WNW 0.9mph /  1.4km/h 6mph /  9.7km/h 82% 0in /  0.0mm 172 W/m2
09:58 64.8 °F /  18.2 °C 58.8 °F /  14.9 °C 29.9in /  1013.2hPa West 2.9mph /  4.7km/h 6mph /  9.7km/h 81% 0in /  0.0mm 86 W/m2
10:03 64.2 °F /  17.9 °C 58.3 °F /  14.6 °C 29.9in /  1013.2hPa WNW 2mph /  3.2km/h 6mph /  9.7km/h 81% 0in /  0.0mm 656 W/m2
10:08 64.6 °F /  18.1 °C 59 °F /  15 °C 29.9in /  1012.9hPa NW 4mph /  6.4km/h 7mph /  11.3km/h 82% 0in /  0.0mm 712 W/m2
10:13 65.3 °F /  18.5 °C 58.6 °F /  14.8 °C 29.9in /  1012.9hPa NNW 0.9mph /  1.4km/h 11mph /  17.7km/h 79% 0in /  0.0mm 260 W/m2
10:18 65.8 °F /  18.8 °C 59.2 °F /  15.1 °C 29.9in /  1013.2hPa WSW 2.9mph /  4.7km/h 6mph /  9.7km/h 79% 0in /  0.0mm 246 W/m2
10:23 65.7 °F /  18.7 °C 58.3 °F /  14.6 °C 29.9in /  1013.2hPa WNW 4mph /  6.4km/h 6mph /  9.7km/h 77% 0in /  0.0mm 151 W/m2
10:28 64.9 °F /  18.3 °C 57.6 °F /  14.2 °C 29.9in /  1013.2hPa WSW 4mph /  6.4km/h 4mph /  6.4km/h 77% 0in /  0.0mm 88 W/m2
10:33 64.6 °F /  18.1 °C 57.6 °F /  14.2 °C 29.9in /  1013.2hPa WSW 0.9mph /  1.4km/h 6mph /  9.7km/h 78% 0in /  0.0mm 86 W/m2
10:38 64.9 °F /  18.3 °C 58.3 °F /  14.6 °C 29.9in /  1013.2hPa WNW 2mph /  3.2km/h 3mph /  4.8km/h 79% 0in /  0.0mm 805 W/m2
10:43 65.7 °F /  18.7 °C 58.3 °F /  14.6 °C 29.9in /  1013.2hPa NNE 0.9mph /  1.4km/h 5mph /  8km/h 77% 0in /  0.0mm 921 W/m2
10:48 66.6 °F /  19.2 °C 58.1 °F /  14.5 °C 29.9in /  1012.9hPa WNW 2.9mph /  4.7km/h 7mph /  11.3km/h 74% 0in /  0.0mm 279 W/m2
10:53 67.3 °F /  19.6 °C 57.9 °F /  14.4 °C 29.9in /  1012.9hPa WSW 4.9mph /  7.9km/h 11mph /  17.7km/h 72% 0in /  0.0mm 756 W/m2
10:58 67.5 °F /  19.7 °C 57.7 °F /  14.3 °C 29.9in /  1012.9hPa NW 2mph /  3.2km/h 6mph /  9.7km/h 71% 0in /  0.0mm 816 W/m2
11:03 68 °F /  20 °C 59 °F /  15 °C 29.9in /  1013.2hPa WSW 6mph /  9.7km/h 11mph /  17.7km/h 73% 0in /  0.0mm 895 W/m2
11:08 67.6 °F /  19.8 °C 57.9 °F /  14.4 °C 29.9in /  1013.2hPa WNW 11mph /  17.7km/h 12mph /  19.3km/h 71% 0in /  0.0mm 72 W/m2
11:13 66.6 °F /  19.2 °C 57.6 °F /  14.2 °C 29.9in /  1013.2hPa West 8.9mph /  14.3km/h 9mph /  14.5km/h 73% 0in /  0.0mm 816 W/m2
11:18 66.9 °F /  19.4 °C 57.9 °F /  14.4 °C 29.9in /  1013.2hPa West 4mph /  6.4km/h 5mph /  8km/h 73% 0in /  0.0mm 856 W/m2
11:23 67.8 °F /  19.9 °C 58.1 °F /  14.5 °C 29.9in /  1013.2hPa West 6.9mph /  11.1km/h 11mph /  17.7km/h 71% 0in /  0.0mm 846 W/m2
11:29 68 °F /  20 °C 57 °F /  13.9 °C 29.9in /  1013.2hPa WSW 2.9mph /  4.7km/h 7mph /  11.3km/h 68% 0in /  0.0mm 926 W/m2
11:34 68 °F /  20 °C 56.7 °F /  13.7 °C 29.9in /  1013.2hPa SW 6mph /  9.7km/h 7mph /  11.3km/h 67% 0in /  0.0mm 165 W/m2
11:39 68.2 °F /  20.1 °C 56.3 °F /  13.5 °C 29.9in /  1013.2hPa WNW 2.9mph /  4.7km/h 7mph /  11.3km/h 66% 0in /  0.0mm 886 W/m2
11:44 68.2 °F /  20.1 °C 56.3 °F /  13.5 °C 29.9in /  1013.2hPa North 4mph /  6.4km/h 7mph /  11.3km/h 66% 0in /  0.0mm 1046 W/m2
11:49 68.4 °F /  20.2 °C 56.1 °F /  13.4 °C 29.9in /  1013.2hPa WSW 6.9mph /  11.1km/h 8mph /  12.9km/h 65% 0in /  0.0mm 1109 W/m2
11:54 68.4 °F /  20.2 °C 56.5 °F /  13.6 °C 29.9in /  1013.2hPa SW 4mph /  6.4km/h 7mph /  11.3km/h 66% 0in /  0.0mm 258 W/m2
11:59 68.2 °F /  20.1 °C 56.8 °F /  13.8 °C 29.9in /  1013.2hPa WSW 2mph /  3.2km/h 10mph /  16.1km/h 67% 0in /  0.0mm 942 W/m2
12:04 68.4 °F /  20.2 °C 57.4 °F /  14.1 °C 29.9in /  1013.2hPa NE 2.9mph /  4.7km/h 4mph /  6.4km/h 68% 0in /  0.0mm 874 W/m2
12:09 69.3 °F /  20.7 °C 57.4 °F /  14.1 °C 29.9in /  1013.2hPa West 2.9mph /  4.7km/h 6mph /  9.7km/h 66% 0in /  0.0mm 847 W/m2
12:14 69.3 °F /  20.7 °C 56.1 °F /  13.4 °C 29.9in /  1013.2hPa NW 8.1mph /  13km/h 12mph /  19.3km/h 63% 0in /  0.0mm 898 W/m2
12:19 69.3 °F /  20.7 °C 55.8 °F /  13.2 °C 29.9in /  1013.2hPa West 6mph /  9.7km/h 7mph /  11.3km/h 62% 0in /  0.0mm 1051 W/m2
12:24 68.7 °F /  20.4 °C 56.1 °F /  13.4 °C 29.9in /  1013.2hPa West 6mph /  9.7km/h 12mph /  19.3km/h 64% 0in /  0.0mm 162 W/m2
12:29 68.9 °F /  20.5 °C 55.8 °F /  13.2 °C 29.9in /  1013.2hPa WNW 8.9mph /  14.3km/h 10mph /  16.1km/h 63% 0in /  0.0mm 1051 W/m2
12:34 69.4 °F /  20.8 °C 56.3 °F /  13.5 °C 29.9in /  1013.2hPa WSW 4mph /  6.4km/h 11mph /  17.7km/h 63% 0in /  0.0mm 970 W/m2
12:39 70 °F /  21.1 °C 55.9 °F /  13.3 °C 29.9in /  1013.2hPa West 2.9mph /  4.7km/h 9mph /  14.5km/h 61% 0in /  0.0mm 1055 W/m2
12:44 70.5 °F /  21.4 °C 56.5 °F /  13.6 °C 29.9in /  1013.2hPa NW 4mph /  6.4km/h 9mph /  14.5km/h 61% 0in /  0.0mm 1056 W/m2
12:49 70.9 °F /  21.6 °C 55.8 °F /  13.2 °C 29.9in /  1013.2hPa WNW 4.9mph /  7.9km/h 9mph /  14.5km/h 59% 0in /  0.0mm 1025 W/m2
12:54 70.3 °F /  21.3 °C 55.8 °F /  13.2 °C 29.9in /  1013.2hPa West 8.9mph /  14.3km/h 10mph /  16.1km/h 60% 0in /  0.0mm 135 W/m2
12:59 69.6 °F /  20.9 °C 55.6 °F /  13.1 °C 29.9in /  1013.2hPa WSW 4.9mph /  7.9km/h 11mph /  17.7km/h 61% 0in /  0.0mm 937 W/m2
13:04 69.8 °F /  21 °C 55.2 °F /  12.9 °C 29.9in /  1013.2hPa SW 4mph /  6.4km/h 5mph /  8km/h 60% 0in /  0.0mm 1014 W/m2
13:09 70.2 °F /  21.2 °C 55.6 °F /  13.1 °C 29.9in /  1013.2hPa West 4mph /  6.4km/h 9mph /  14.5km/h 60% 0in /  0.0mm 1125 W/m2
13:14 70.3 °F /  21.3 °C 55.8 °F /  13.2 °C 29.9in /  1013.2hPa WNW 8.1mph /  13km/h 16mph /  25.7km/h 60% 0in /  0.0mm 984 W/m2
13:19 70.3 °F /  21.3 °C 54.9 °F /  12.7 °C 29.9in /  1013.2hPa SW 4.9mph /  7.9km/h 10mph /  16.1km/h 58% 0in /  0.0mm 947 W/m2
13:24 70.3 °F /  21.3 °C 54.9 °F /  12.7 °C 29.9in /  1013.2hPa WNW 4mph /  6.4km/h 16mph /  25.7km/h 58% 0in /  0.0mm 264 W/m2
13:29 70.2 °F /  21.2 °C 54.7 °F /  12.6 °C 29.9in /  1013.2hPa West 6.9mph /  11.1km/h 9mph /  14.5km/h 58% 0in /  0.0mm 132 W/m2
13:34 70.2 °F /  21.2 °C 54.7 °F /  12.6 °C 29.9in /  1013.2hPa WNW 6.9mph /  11.1km/h 10mph /  16.1km/h 58% 0in /  0.0mm 963 W/m2
13:39 71.1 °F /  21.7 °C 55.6 °F /  13.1 °C 29.9in /  1013.2hPa NNW 2.9mph /  4.7km/h 10mph /  16.1km/h 58% 0in /  0.0mm 947 W/m2
13:44 71.1 °F /  21.7 °C 55 °F /  12.8 °C 29.9in /  1013.2hPa WSW 6.9mph /  11.1km/h 10mph /  16.1km/h 57% 0in /  0.0mm 958 W/m2
13:49 71.1 °F /  21.7 °C 55 °F /  12.8 °C 29.9in /  1013.2hPa SW 6.9mph /  11.1km/h 11mph /  17.7km/h 57% 0in /  0.0mm 995 W/m2
13:54 71.2 °F /  21.8 °C 54.7 °F /  12.6 °C 29.9in /  1012.9hPa NNW 4.9mph /  7.9km/h 10mph /  16.1km/h 56% 0in /  0.0mm 942 W/m2
13:59 71.4 °F /  21.9 °C 54 °F /  12.2 °C 29.9in /  1012.9hPa North 2mph /  3.2km/h 15mph /  24.1km/h 54% 0in /  0.0mm 1005 W/m2
14:04 71.2 °F /  21.8 °C 54.3 °F /  12.4 °C 29.9in /  1012.9hPa NW 4.9mph /  7.9km/h 10mph /  16.1km/h 55% 0in /  0.0mm 976 W/m2
14:09 70.9 °F /  21.6 °C 53.4 °F /  11.9 °C 29.9in /  1012.9hPa West 8.1mph /  13km/h 12mph /  19.3km/h 54% 0in /  0.0mm 158 W/m2
14:14 70.9 °F /  21.6 °C 54 °F /  12.2 °C 29.9in /  1012.9hPa WSW 6.9mph /  11.1km/h 10mph /  16.1km/h 55% 0in /  0.0mm 947 W/m2
14:19 71.2 °F /  21.8 °C 53.8 °F /  12.1 °C 29.9in /  1012.9hPa WNW 12.1mph /  19.5km/h 16mph /  25.7km/h 54% 0in /  0.0mm 930 W/m2
14:24 71.6 °F /  22 °C 53.1 °F /  11.7 °C 29.9in /  1012.9hPa WNW 8.1mph /  13km/h 10mph /  16.1km/h 52% 0in /  0.0mm 1021 W/m2
14:29 71.8 °F /  22.1 °C 52.7 °F /  11.5 °C 29.9in /  1012.9hPa WNW 4.9mph /  7.9km/h 11mph /  17.7km/h 51% 0in /  0.0mm 279 W/m2
14:34 71.6 °F /  22 °C 52.5 °F /  11.4 °C 29.9in /  1012.9hPa WNW 13mph /  20.9km/h 13mph /  20.9km/h 51% 0in /  0.0mm 983 W/m2
14:39 71.2 °F /  21.8 °C 51.1 °F /  10.6 °C 29.9in /  1012.9hPa WNW 11mph /  17.7km/h 14mph /  22.5km/h 49% 0in /  0.0mm 933 W/m2
14:44 71.8 °F /  22.1 °C 52.2 °F /  11.2 °C 29.9in /  1012.9hPa WNW 11mph /  17.7km/h 11mph /  17.7km/h 50% 0in /  0.0mm 939 W/m2
14:49 72 °F /  22.2 °C 51.8 °F /  11 °C 29.9in /  1012.5hPa WNW 6.9mph /  11.1km/h 11mph /  17.7km/h 49% 0in /  0.0mm 969 W/m2
14:54 72.1 °F /  22.3 °C 52 °F /  11.1 °C 29.9in /  1012.5hPa West 6.9mph /  11.1km/h 10mph /  16.1km/h 49% 0in /  0.0mm 923 W/m2
14:59 71.8 °F /  22.1 °C 51.1 °F /  10.6 °C 29.9in /  1012.5hPa WNW 6.9mph /  11.1km/h 16mph /  25.7km/h 48% 0in /  0.0mm 926 W/m2
15:04 72 °F /  22.2 °C 51.8 °F /  11 °C 29.9in /  1012.5hPa WSW 4.9mph /  7.9km/h 11mph /  17.7km/h 49% 0in /  0.0mm 935 W/m2
15:09 72.1 °F /  22.3 °C 50.7 °F /  10.4 °C 29.9in /  1012.5hPa West 6.9mph /  11.1km/h 15mph /  24.1km/h 47% 0in /  0.0mm 954 W/m2
15:19 71.8 °F /  22.1 °C 51.1 °F /  10.6 °C 29.9in /  1012.5hPa SW 6.9mph /  11.1km/h 12mph /  19.3km/h 48% 0in /  0.0mm 951 W/m2
15:24 71.4 °F /  21.9 °C 50.7 °F /  10.4 °C 29.9in /  1012.5hPa West 4mph /  6.4km/h 17mph /  27.4km/h 48% 0in /  0.0mm 153 W/m2
15:29 71.2 °F /  21.8 °C 51.6 °F /  10.9 °C 29.9in /  1012.5hPa West 2.9mph /  4.7km/h 11mph /  17.7km/h 50% 0in /  0.0mm 241 W/m2
15:34 71.8 °F /  22.1 °C 51.1 °F /  10.6 °C 29.9in /  1012.5hPa NW 4mph /  6.4km/h 7mph /  11.3km/h 48% 0in /  0.0mm 870 W/m2
15:39 72 °F /  22.2 °C 50.7 °F /  10.4 °C 29.9in /  1012.5hPa West 8.1mph /  13km/h 10mph /  16.1km/h 47% 0in /  0.0mm 925 W/m2
15:44 71.8 °F /  22.1 °C 51.1 °F /  10.6 °C 29.9in /  1012.5hPa WSW 2.9mph /  4.7km/h 9mph /  14.5km/h 48% 0in /  0.0mm 230 W/m2
15:49 71.8 °F /  22.1 °C 51.1 °F /  10.6 °C 29.9in /  1012.5hPa WSW 2mph /  3.2km/h 9mph /  14.5km/h 48% 0in /  0.0mm 937 W/m2
15:54 71.4 °F /  21.9 °C 50.2 °F /  10.1 °C 29.9in /  1012.5hPa WSW 8.1mph /  13km/h 11mph /  17.7km/h 47% 0in /  0.0mm 921 W/m2
15:59 71.6 °F /  22 °C 49.6 °F /  9.8 °C 29.9in /  1012.5hPa West 8.9mph /  14.3km/h 17mph /  27.4km/h 46% 0in /  0.0mm 905 W/m2
16:04 71.6 °F /  22 °C 49.6 °F /  9.8 °C 29.9in /  1012.9hPa North 6mph /  9.7km/h 10mph /  16.1km/h 46% 0in /  0.0mm 842 W/m2
16:09 71.6 °F /  22 °C 49.6 °F /  9.8 °C 29.9in /  1012.5hPa WNW 6.9mph /  11.1km/h 18mph /  29km/h 46% 0in /  0.0mm 846 W/m2
16:14 71.4 °F /  21.9 °C 50.2 °F /  10.1 °C 29.9in /  1012.5hPa WNW 8.9mph /  14.3km/h 9mph /  14.5km/h 47% 0in /  0.0mm 853 W/m2
16:19 72 °F /  22.2 °C 50.7 °F /  10.4 °C 29.9in /  1012.5hPa WNW 6.9mph /  11.1km/h 9mph /  14.5km/h 47% 0in /  0.0mm 823 W/m2
16:24 72.1 °F /  22.3 °C 49.6 °F /  9.8 °C 29.9in /  1012.5hPa WNW 6.9mph /  11.1km/h 8mph /  12.9km/h 45% 0in /  0.0mm 860 W/m2
16:29 72.3 °F /  22.4 °C 50.4 °F /  10.2 °C 29.9in /  1012.5hPa SW 6.9mph /  11.1km/h 10mph /  16.1km/h 46% 0in /  0.0mm 828 W/m2
16:34 72.1 °F /  22.3 °C 49.6 °F /  9.8 °C 29.9in /  1012.5hPa WNW 4.9mph /  7.9km/h 14mph /  22.5km/h 45% 0in /  0.0mm 756 W/m2
16:39 72.3 °F /  22.4 °C 49.8 °F /  9.9 °C 29.9in /  1012.5hPa WSW 6.9mph /  11.1km/h 7mph /  11.3km/h 45% 0in /  0.0mm 833 W/m2
16:44 72.3 °F /  22.4 °C 50.4 °F /  10.2 °C 29.9in /  1012.5hPa West 2.9mph /  4.7km/h 10mph /  16.1km/h 46% 0in /  0.0mm 631 W/m2
16:49 72.3 °F /  22.4 °C 49.1 °F /  9.5 °C 29.9in /  1012.5hPa NNW 8.1mph /  13km/h 11mph /  17.7km/h 44% 0in /  0.0mm 770 W/m2
16:54 72 °F /  22.2 °C 49.5 °F /  9.7 °C 29.9in /  1012.5hPa WNW 4.9mph /  7.9km/h 15mph /  24.1km/h 45% 0in /  0.0mm 160 W/m2
16:59 71.4 °F /  21.9 °C 49.6 °F /  9.8 °C 29.9in /  1012.5hPa NW 6.9mph /  11.1km/h 10mph /  16.1km/h 46% 0in /  0.0mm 311 W/m2
17:04 70.9 °F /  21.6 °C 49.1 °F /  9.5 °C 29.9in /  1012.5hPa West 6mph /  9.7km/h 15mph /  24.1km/h 46% 0in /  0.0mm 209 W/m2
17:09 70.5 °F /  21.4 °C 49.3 °F /  9.6 °C 29.9in /  1012.5hPa West 4mph /  6.4km/h 10mph /  16.1km/h 47% 0in /  0.0mm 176 W/m2
17:14 71.2 °F /  21.8 °C 50.5 °F /  10.3 °C 29.9in /  1012.5hPa West 2.9mph /  4.7km/h 10mph /  16.1km/h 48% 0in /  0.0mm 717 W/m2
17:19 71.4 °F /  21.9 °C 50.2 °F /  10.1 °C 29.9in /  1012.2hPa West 13mph /  20.9km/h 13mph /  20.9km/h 47% 0in /  0.0mm 717 W/m2
17:24 71.8 °F /  22.1 °C 50.5 °F /  10.3 °C 29.9in /  1012.2hPa NW 4.9mph /  7.9km/h 11mph /  17.7km/h 47% 0in /  0.0mm 677 W/m2
17:34 71.2 °F /  21.8 °C 50.5 °F /  10.3 °C 29.9in /  1012.5hPa WNW 6.9mph /  11.1km/h 12mph /  19.3km/h 48% 0in /  0.0mm 703 W/m2
17:39 71.4 °F /  21.9 °C 50.7 °F /  10.4 °C 29.9in /  1012.5hPa West 8.1mph /  13km/h 10mph /  16.1km/h 48% 0in /  0.0mm 647 W/m2
17:44 72 °F /  22.2 °C 50.7 °F /  10.4 °C 29.9in /  1012.5hPa WSW 4mph /  6.4km/h 9mph /  14.5km/h 47% 0in /  0.0mm 631 W/m2
17:49 71.2 °F /  21.8 °C 50 °F /  10 °C 29.9in /  1012.5hPa NW 4mph /  6.4km/h 7mph /  11.3km/h 47% 0in /  0.0mm 162 W/m2
17:54 71.1 °F /  21.7 °C 51.4 °F /  10.8 °C 29.9in /  1012.5hPa West 6mph /  9.7km/h 9mph /  14.5km/h 50% 0in /  0.0mm 701 W/m2
17:59 71.4 °F /  21.9 °C 50.7 °F /  10.4 °C 29.9in /  1012.5hPa WNW 8.9mph /  14.3km/h 10mph /  16.1km/h 48% 0in /  0.0mm 622 W/m2
18:04 71.1 °F /  21.7 °C 50.4 °F /  10.2 °C 29.9in /  1012.5hPa WSW 14.1mph /  22.7km/h 16mph /  25.7km/h 48% 0in /  0.0mm 97 W/m2
18:09 70.3 °F /  21.3 °C 49.6 °F /  9.8 °C 29.9in /  1012.5hPa NW 2.9mph /  4.7km/h 9mph /  14.5km/h 48% 0in /  0.0mm 643 W/m2
18:14 70.9 °F /  21.6 °C 50.7 °F /  10.4 °C 29.9in /  1012.2hPa WNW 6mph /  9.7km/h 6mph /  9.7km/h 49% 0in /  0.0mm 589 W/m2
18:19 71.1 °F /  21.7 °C 50.4 °F /  10.2 °C 29.9in /  1012.2hPa NNW 6mph /  9.7km/h 8mph /  12.9km/h 48% 0in /  0.0mm 223 W/m2
18:24 70.7 °F /  21.5 °C 50 °F /  10 °C 29.9in /  1012.2hPa NW 2.9mph /  4.7km/h 8mph /  12.9km/h 48% 0in /  0.0mm 123 W/m2
18:29 70.3 °F /  21.3 °C 50.4 °F /  10.2 °C 29.9in /  1012.2hPa West 2.9mph /  4.7km/h 6mph /  9.7km/h 49% 0in /  0.0mm 153 W/m2
18:35 70.2 °F /  21.2 °C 49.6 °F /  9.8 °C 29.9in /  1012.5hPa WSW 4mph /  6.4km/h 12mph /  19.3km/h 48% 0in /  0.0mm 128 W/m2
18:40 69.8 °F /  21 °C 49.3 °F /  9.6 °C 29.9in /  1012.5hPa West 2.9mph /  4.7km/h 7mph /  11.3km/h 48% 0in /  0.0mm 77 W/m2
18:45 69.4 °F /  20.8 °C 50 °F /  10 °C 29.9in /  1012.5hPa WNW 6.9mph /  11.1km/h 9mph /  14.5km/h 50% 0in /  0.0mm 374 W/m2
18:50 69.3 °F /  20.7 °C 49.3 °F /  9.6 °C 29.9in /  1012.5hPa West 6.9mph /  11.1km/h 9mph /  14.5km/h 49% 0in /  0.0mm 234 W/m2
18:55 69.3 °F /  20.7 °C 49.8 °F /  9.9 °C 29.9in /  1012.5hPa SW 4mph /  6.4km/h 9mph /  14.5km/h 50% 0in /  0.0mm 148 W/m2
19:00 69.6 °F /  20.9 °C 50.2 °F /  10.1 °C 29.9in /  1012.2hPa West 2.9mph /  4.7km/h 10mph /  16.1km/h 50% 0in /  0.0mm 192 W/m2
19:05 69.4 °F /  20.8 °C 49.5 °F /  9.7 °C 29.9in /  1012.5hPa West 6.9mph /  11.1km/h 9mph /  14.5km/h 49% 0in /  0.0mm 62 W/m2
19:10 69.1 °F /  20.6 °C 49.1 °F /  9.5 °C 29.9in /  1012.5hPa WNW 2.9mph /  4.7km/h 7mph /  11.3km/h 49% 0in /  0.0mm 121 W/m2
19:15 69.4 °F /  20.8 °C 48.9 °F /  9.4 °C 29.9in /  1012.2hPa West 6.9mph /  11.1km/h 11mph /  17.7km/h 48% 0in /  0.0mm 355 W/m2
19:20 69.8 °F /  21 °C 49.3 °F /  9.6 °C 29.9in /  1012.2hPa West 2.9mph /  4.7km/h 6mph /  9.7km/h 48% 0in /  0.0mm 51 W/m2
19:25 69.6 °F /  20.9 °C 48.6 °F /  9.2 °C 29.9in /  1012.5hPa West 4mph /  6.4km/h 11mph /  17.7km/h 47% 0in /  0.0mm 54 W/m2
19:30 69.1 °F /  20.6 °C 48.6 °F /  9.2 °C 29.9in /  1012.5hPa WNW 2.9mph /  4.7km/h 5mph /  8km/h 48% 0in /  0.0mm 102 W/m2
19:35 69.1 °F /  20.6 °C 48.6 °F /  9.2 °C 29.9in /  1012.5hPa WNW 8.1mph /  13km/h 10mph /  16.1km/h 48% 0in /  0.0mm 322 W/m2
19:40 69.4 °F /  20.8 °C 48.9 °F /  9.4 °C 29.9in /  1012.5hPa WNW 4mph /  6.4km/h 8mph /  12.9km/h 48% 0in /  0.0mm 276 W/m2
19:45 69.8 °F /  21 °C 49.3 °F /  9.6 °C 29.9in /  1012.5hPa WSW 4mph /  6.4km/h 10mph /  16.1km/h 48% 0in /  0.0mm 199 W/m2
19:50 70 °F /  21.1 °C 50 °F /  10 °C 29.9in /  1012.5hPa West 6mph /  9.7km/h 7mph /  11.3km/h 49% 0in /  0.0mm 39 W/m2
19:55 69.3 °F /  20.7 °C 49.3 °F /  9.6 °C 29.9in /  1012.5hPa West 4mph /  6.4km/h 7mph /  11.3km/h 49% 0in /  0.0mm 67 W/m2
20:00 68.5 °F /  20.3 °C 48.6 °F /  9.2 °C 29.9in /  1012.2hPa West 2.9mph /  4.7km/h 9mph /  14.5km/h 49% 0in /  0.0mm 39 W/m2
20:05 68.5 °F /  20.3 °C 49.1 °F /  9.5 °C 29.9in /  1012.2hPa West 2.9mph /  4.7km/h 7mph /  11.3km/h 50% 0in /  0.0mm 181 W/m2
20:10 68.7 °F /  20.4 °C 48.7 °F /  9.3 °C 29.9in /  1012.2hPa West 4mph /  6.4km/h 6mph /  9.7km/h 49% 0in /  0.0mm 160 W/m2
20:15 69.1 °F /  20.6 °C 48.6 °F /  9.2 °C 29.9in /  1012.2hPa West 4mph /  6.4km/h 8mph /  12.9km/h 48% 0in /  0.0mm 146 W/m2
20:20 69.1 °F /  20.6 °C 48 °F /  8.9 °C 29.9in /  1012.2hPa WNW 8.9mph /  14.3km/h 11mph /  17.7km/h 47% 0in /  0.0mm 132 W/m2
20:25 68.9 °F /  20.5 °C 48.4 °F /  9.1 °C 29.9in /  1012.2hPa WSW 4.9mph /  7.9km/h 7mph /  11.3km/h 48% 0in /  0.0mm 118 W/m2
20:30 68.7 °F /  20.4 °C 48.7 °F /  9.3 °C 29.9in /  1012.2hPa West 2.9mph /  4.7km/h 6mph /  9.7km/h 49% 0in /  0.0mm 107 W/m2
20:35 68.5 °F /  20.3 °C 48.6 °F /  9.2 °C 29.9in /  1012.2hPa West 2.9mph /  4.7km/h 6mph /  9.7km/h 49% 0in /  0.0mm 88 W/m2
20:40 68.5 °F /  20.3 °C 49.1 °F /  9.5 °C 29.9in /  1012.2hPa WNW 2mph /  3.2km/h 3mph /  4.8km/h 50% 0in /  0.0mm 74 W/m2
20:45 68.5 °F /  20.3 °C 49.1 °F /  9.5 °C 29.9in /  1012.2hPa West 2mph /  3.2km/h 6mph /  9.7km/h 50% 0in /  0.0mm 70 W/m2
20:50 68.4 °F /  20.2 °C 48.9 °F /  9.4 °C 29.9in /  1012.2hPa West 2mph /  3.2km/h 4mph /  6.4km/h 50% 0in /  0.0mm 62 W/m2
20:55 67.8 °F /  19.9 °C 49.1 °F /  9.5 °C 29.9in /  1012.2hPa West 2mph /  3.2km/h 5mph /  8km/h 51% 0in /  0.0mm 54 W/m2
21:00 67.6 °F /  19.8 °C 49.5 °F /  9.7 °C 29.9in /  1012.2hPa West 2.9mph /  4.7km/h 4mph /  6.4km/h 52% 0in /  0.0mm 47 W/m2
21:05 67.3 °F /  19.6 °C 49.1 °F /  9.5 °C 29.9in /  1012.2hPa WSW 2.9mph /  4.7km/h 4mph /  6.4km/h 52% 0in /  0.0mm 39 W/m2
21:10 66.7 °F /  19.3 °C 49.1 °F /  9.5 °C 29.9in /  1012.2hPa West 2mph /  3.2km/h 4mph /  6.4km/h 53% 0in /  0.0mm 30 W/m2
21:15 66.4 °F /  19.1 °C 49.3 °F /  9.6 °C 29.9in /  1012.2hPa West 2mph /  3.2km/h 4mph /  6.4km/h 54% 0in /  0.0mm 18 W/m2
21:20 65.8 °F /  18.8 °C 49.3 °F /  9.6 °C 29.9in /  1012.2hPa WSW 2mph /  3.2km/h 3mph /  4.8km/h 55% 0in /  0.0mm 14 W/m2
21:25 65.3 °F /  18.5 °C 49.6 °F /  9.8 °C 29.9in /  1012.2hPa WSW 0.9mph /  1.4km/h 1mph /  1.6km/h 57% 0in /  0.0mm 12 W/m2
21:31 64.9 °F /  18.3 °C 49.3 °F /  9.6 °C 29.9in /  1012.2hPa WSW 0.9mph /  1.4km/h 1mph /  1.6km/h 57% 0in /  0.0mm 11 W/m2
21:36 64.6 °F /  18.1 °C 50 °F /  10 °C 29.9in /  1012.2hPa Calm   3mph /  4.8km/h 59% 0in /  0.0mm 7 W/m2
21:41 64 °F /  17.8 °C 49.5 °F /  9.7 °C 29.9in /  1012.5hPa WSW 2mph /  3.2km/h 3mph /  4.8km/h 59% 0in /  0.0mm 5 W/m2
21:46 63.7 °F /  17.6 °C 49.5 °F /  9.7 °C 29.9in /  1012.5hPa WSW 0.9mph /  1.4km/h 3mph /  4.8km/h 60% 0in /  0.0mm 0 W/m2
21:51 63.3 °F /  17.4 °C 49.3 °F /  9.6 °C 29.9in /  1012.2hPa WNW 2mph /  3.2km/h 4mph /  6.4km/h 60% 0in /  0.0mm 0 W/m2
21:56 63.3 °F /  17.4 °C 49.6 °F /  9.8 °C 29.9in /  1012.5hPa West 0.9mph /  1.4km/h 3mph /  4.8km/h 61% 0in /  0.0mm 0 W/m2
22:01 63 °F /  17.2 °C 48.9 °F /  9.4 °C 29.9in /  1012.5hPa West 2mph /  3.2km/h 2mph /  3.2km/h 60% 0in /  0.0mm 0 W/m2
22:06 63 °F /  17.2 °C 49.3 °F /  9.6 °C 29.9in /  1012.5hPa West 0.9mph /  1.4km/h 2mph /  3.2km/h 61% 0in /  0.0mm 0 W/m2
22:12 63 °F /  17.2 °C 49.3 °F /  9.6 °C 29.9in /  1012.5hPa WNW 4mph /  6.4km/h 4mph /  6.4km/h 61% 0in /  0.0mm 0 W/m2
22:17 62.8 °F /  17.1 °C 49.1 °F /  9.5 °C 29.9in /  1012.5hPa WNW 4mph /  6.4km/h 5mph /  8km/h 61% 0in /  0.0mm 0 W/m2
22:22 62.8 °F /  17.1 °C 49.1 °F /  9.5 °C 29.9in /  1012.5hPa WSW 2mph /  3.2km/h 3mph /  4.8km/h 61% 0in /  0.0mm 0 W/m2
22:27 62.8 °F /  17.1 °C 49.1 °F /  9.5 °C 29.9in /  1012.5hPa WSW 2mph /  3.2km/h 4mph /  6.4km/h 61% 0in /  0.0mm 0 W/m2
22:32 62.6 °F /  17 °C 49.5 °F /  9.7 °C 29.9in /  1012.5hPa WNW 0.9mph /  1.4km/h 3mph /  4.8km/h 62% 0in /  0.0mm 0 W/m2
22:37 62.4 °F /  16.9 °C 49.3 °F /  9.6 °C 29.9in /  1012.5hPa WNW 2mph /  3.2km/h 4mph /  6.4km/h 62% 0in /  0.0mm 0 W/m2
22:42 62.4 °F /  16.9 °C 49.3 °F /  9.6 °C 29.9in /  1012.5hPa WSW 2mph /  3.2km/h 6mph /  9.7km/h 62% 0in /  0.0mm 0 W/m2
22:47 62.2 °F /  16.8 °C 49.1 °F /  9.5 °C 29.9in /  1012.5hPa WNW 2mph /  3.2km/h 4mph /  6.4km/h 62% 0in /  0.0mm 0 W/m2
22:52 62.2 °F /  16.8 °C 49.5 °F /  9.7 °C 29.9in /  1012.5hPa West 2mph /  3.2km/h 6mph /  9.7km/h 63% 0in /  0.0mm 0 W/m2
22:57 62.1 °F /  16.7 °C 49.3 °F /  9.6 °C 29.9in /  1012.9hPa West 0.9mph /  1.4km/h 2mph /  3.2km/h 63% 0in /  0.0mm 0 W/m2
23:03 61.9 °F /  16.6 °C 49.1 °F /  9.5 °C 29.9in /  1012.9hPa SW 0.9mph /  1.4km/h 2mph /  3.2km/h 63% 0in /  0.0mm 0 W/m2
23:08 61.5 °F /  16.4 °C 49.3 °F /  9.6 °C 29.9in /  1012.9hPa Calm   1mph /  1.6km/h 64% 0in /  0.0mm 0 W/m2
23:13 61.2 °F /  16.2 °C 49.6 °F /  9.8 °C 29.9in /  1012.9hPa Calm     66% 0in /  0.0mm 0 W/m2
23:18 61 °F /  16.1 °C 50 °F /  10 °C 29.9in /  1012.9hPa Calm     67% 0in /  0.0mm 0 W/m2
23:23 60.6 °F /  15.9 °C 49.6 °F /  9.8 °C 29.9in /  1012.9hPa Calm     67% 0in /  0.0mm 0 W/m2
23:28 60.3 °F /  15.7 °C 49.6 °F /  9.8 °C 29.9in /  1012.5hPa Calm     68% 0in /  0.0mm 0 W/m2
23:33 59.7 °F /  15.4 °C 49.5 °F /  9.7 °C 29.9in /  1012.9hPa West 0.9mph /  1.4km/h 2mph /  3.2km/h 69% 0in /  0.0mm 0 W/m2
23:38 59.5 °F /  15.3 °C 48.9 °F /  9.4 °C 29.9in /  1012.9hPa Calm   1mph /  1.6km/h 68% 0in /  0.0mm 0 W/m2
23:43 59.7 °F /  15.4 °C 49.1 °F /  9.5 °C 29.9in /  1012.9hPa WSW 0.9mph /  1.4km/h 2mph /  3.2km/h 68% 0in /  0.0mm 0 W/m2
23:48 59.7 °F /  15.4 °C 50 °F /  10 °C 29.9in /  1012.9hPa Calm   1mph /  1.6km/h 70% 0in /  0.0mm 0 W/m2
23:53 59.4 °F /  15.2 °C 50 °F /  10 °C 29.9in /  1012.9hPa West 0.9mph /  1.4km/h 1mph /  1.6km/h 71% 0in /  0.0mm 0 W/m2
23:58 59.2 °F /  15.1 °C 50.2 °F /  10.1 °C 29.9in /  1012.9hPa Calm   1mph /  1.6km/h 72% 0in /  0.0mm 0 W/m2
Juneau County Weather
Compliments of Weather Underground - 4 mb